Time;durP1;ratioP1;P1;durP2;ratioP2;P2;SDS_P1;SDS_P2;PMS_P1;PMS_P2;Temp;Humidity;BMP_temperature;BMP_pressure;BME280_temperature;BME280_humidity;BME280_pressure;Samples;Min_cycle;Max_cycle;Signal;HPM_P1;HPM_P2
2023/07/26 00:00:53;;;;;;;6.78;3.75;;;13.30;99.90;;;;;;4989152;28;20046;-66
2023/07/26 00:03:19;;;;;;;7.43;3.95;;;13.40;99.90;;;;;;4987589;28;20038;-66
2023/07/26 00:08:13;;;;;;;8.52;4.10;;;;;;;;;;4992657;28;20065;-66
2023/07/26 00:10:44;;;;;;;6.47;3.90;;;13.50;99.90;;;;;;4973484;28;20489;-66
2023/07/26 00:13:10;;;;;;;5.65;3.55;;;;;;;;;;4992040;28;20072;-65
2023/07/26 00:18:04;;;;;;;5.88;3.95;;;;;;;;;;4970514;28;20065;-66
2023/07/26 00:24:11;;;;;;;9.00;3.50;;;;;;;;;;4971962;28;20037;-65
2023/07/26 00:26:36;;;;;;;5.72;3.33;;;13.40;99.90;;;;;;4967975;28;20039;-67
2023/07/26 00:29:02;;;;;;;8.45;3.42;;;;;;;;;;4963144;28;20133;-67
2023/07/26 00:31:28;;;;;;;4.63;3.20;;;;;;;;;;4970354;28;20046;-66
2023/07/26 00:33:54;;;;;;;5.70;2.97;;;13.40;99.90;;;;;;4961711;28;20039;-66
2023/07/26 00:36:19;;;;;;;7.63;3.20;;;13.40;99.90;;;;;;4962324;28;20039;-66
2023/07/26 00:38:46;;;;;;;10.88;4.38;;;;;;;;;;4961470;28;20576;-67
2023/07/26 00:42:01;;;;;;;5.32;3.17;;;13.50;99.90;;;;;;4962441;28;20050;-66
2023/07/26 00:44:45;;;;;;;4.80;3.47;;;13.40;99.90;;;;;;4961754;28;20110;-66
2023/07/26 00:47:11;;;;;;;5.63;2.95;;;;;;;;;;4957605;28;20042;-67
2023/07/26 00:49:37;;;;;;;6.38;3.10;;;13.40;99.90;;;;;;4962359;28;20054;-66
2023/07/26 00:52:23;;;;;;;6.85;3.05;;;;;;;;;;4966080;28;20047;-66
2023/07/26 00:54:49;;;;;;;5.88;3.40;;;;;;;;;;4957933;28;20059;-67
2023/07/26 00:57:15;;;;;;;6.95;3.85;;;13.20;99.90;;;;;;4964831;28;20166;-66
2023/07/26 01:03:22;;;;;;;5.88;3.70;;;;;;;;;;4953317;28;20045;-66
2023/07/26 01:13:33;;;;;;;4.80;3.08;;;;;;;;;;4966137;28;20077;-66
2023/07/26 01:19:02;;;;;;;6.82;3.08;;;;;;;;;;5130495;23;20050;-66
2023/07/26 01:27:26;;;;;;;6.05;3.38;;;;;;;;;;6107710;22;20031;-69
2023/07/26 01:29:55;;;;;;;8.35;3.47;;;;;;;;;;4987779;28;20054;-66
2023/07/26 01:35:44;;;;;;;8.80;3.38;;;12.70;99.90;;;;;;4972276;28;20050;-66
2023/07/26 01:41:24;;;;;;;4.65;3.15;;;;;;;;;;4978750;28;20050;-66
2023/07/26 01:43:50;;;;;;;4.93;3.13;;;;;;;;;;4977023;28;20062;-66
2023/07/26 01:48:49;;;;;;;9.32;3.58;;;;;;;;;;4981195;28;20050;-66
2023/07/26 01:51:15;;;;;;;7.28;3.60;;;;;;;;;;4984188;28;20039;-66
2023/07/26 01:53:41;;;;;;;4.72;2.70;;;;;;;;;;4985868;28;20531;-66
2023/07/26 01:56:07;;;;;;;4.53;3.03;;;;;;;;;;4986189;28;20497;-66
2023/07/26 01:58:33;;;;;;;4.10;3.00;;;;;;;;;;4980763;28;20057;-66
2023/07/26 02:01:01;;;;;;;6.63;3.67;;;12.50;99.90;;;;;;4985425;28;20046;-66
2023/07/26 02:07:08;;;;;;;5.97;3.17;;;;;;;;;;4976326;28;20050;-66
2023/07/26 02:09:34;;;;;;;4.85;2.70;;;;;;;;;;4980798;28;20053;-66
2023/07/26 02:15:41;;;;;;;6.30;2.80;;;;;;;;;;4977892;28;20072;-66
2023/07/26 02:18:07;;;;;;;5.25;3.55;;;;;;;;;;4990477;28;20078;-67
2023/07/26 02:20:34;;;;;;;6.97;3.42;;;;;;;;;;4999882;28;20078;-67
2023/07/26 02:23:03;;;;;;;4.25;2.80;;;;;;;;;;4978964;28;20054;-66
2023/07/26 02:25:29;;;;;;;4.63;3.00;;;;;;;;;;4990737;22;20039;-67
2023/07/26 02:28:16;;;;;;;4.68;2.83;;;12.30;99.90;;;;;;4981458;28;20076;-66
2023/07/26 02:30:42;;;;;;;7.22;3.28;;;;;;;;;;4982678;28;20034;-67
2023/07/26 02:33:08;;;;;;;4.53;3.03;;;;;;;;;;4984346;28;20046;-67
2023/07/26 02:41:39;;;;;;;5.30;2.85;;;;;;;;;;4980582;28;20099;-66
2023/07/26 02:44:05;;;;;;;6.30;3.45;;;;;;;;;;4978042;28;20110;-66
2023/07/26 02:53:21;;;;;;;4.53;2.55;;;;;;;;;;4989819;28;20034;-66
2023/07/26 02:55:47;;;;;;;4.75;3.35;;;;;;;;;;4975528;28;20053;-66
2023/07/26 02:58:13;;;;;;;3.05;2.67;;;;;;;;;;4980117;28;20408;-66
2023/07/26 03:00:39;;;;;;;4.47;2.97;;;;;;;;;;4983456;28;20050;-66
2023/07/26 03:03:05;;;;;;;6.38;3.40;;;;;;;;;;4985738;28;20177;-66
2023/07/26 03:05:31;;;;;;;5.65;2.78;;;;;;;;;;4985829;28;20070;-67
2023/07/26 03:07:57;;;;;;;4.90;2.97;;;;;;;;;;4979611;28;20053;-66
2023/07/26 03:10:23;;;;;;;5.40;3.40;;;;;;;;;;4978135;28;20409;-67
2023/07/26 03:12:55;;;;;;;5.22;3.35;;;;;;;;;;4983312;28;20038;-65
2023/07/26 03:15:22;;;;;;;4.30;3.53;;;;;;;;;;4987955;28;20034;-66
2023/07/26 03:17:48;;;;;;;5.07;3.83;;;;;;;;;;4982473;28;20046;-68
2023/07/26 03:20:14;;;;;;;6.72;3.72;;;;;;;;;;4978955;28;20066;-66
2023/07/26 03:22:40;;;;;;;3.47;2.60;;;;;;;;;;4981145;28;20061;-65
2023/07/26 03:30:02;;;;;;;6.20;3.35;;;;;;;;;;4980905;28;20120;-67
2023/07/26 03:32:28;;;;;;;4.95;3.05;;;;;;;;;;4988233;28;20038;-67
2023/07/26 03:40:04;;;;;;;3.72;3.33;;;;;;;;;;4982309;28;20137;-66
2023/07/26 03:42:30;;;;;;;7.35;3.97;;;;;;;;;;4984327;28;20097;-65
2023/07/26 03:44:56;;;;;;;6.53;3.45;;;;;;;;;;4984361;28;20050;-68
2023/07/26 03:47:22;;;;;;;3.65;2.80;;;;;;;;;;4971425;28;20130;-66
2023/07/26 03:49:48;;;;;;;3.75;3.10;;;;;;;;;;4983390;28;20117;-66
2023/07/26 03:58:31;;;;;;;5.97;3.53;;;12.20;99.90;;;;;;5084251;22;20054;-66
2023/07/26 04:00:57;;;;;;;6.70;3.78;;;;;;;;;;5007687;28;20389;-66
2023/07/26 04:03:23;;;;;;;4.25;3.05;;;;;;;;;;5004102;28;20046;-66
2023/07/26 04:05:48;;;;;;;5.50;3.72;;;12.30;99.90;;;;;;5002460;28;20042;-66
2023/07/26 04:08:14;;;;;;;6.18;3.40;;;;;;;;;;4989454;28;20049;-66
2023/07/26 04:10:40;;;;;;;6.20;3.88;;;;;;;;;;4991629;28;20121;-77
2023/07/26 04:13:06;;;;;;;5.93;3.05;;;;;;;;;;4976534;28;20069;-69
2023/07/26 04:15:32;;;;;;;5.35;3.47;;;;;;;;;;4995008;28;20089;-68
2023/07/26 04:17:58;;;;;;;11.18;4.20;;;;;;;;;;4998372;28;20599;-67
2023/07/26 04:20:24;;;;;;;10.02;4.03;;;;;;;;;;4986109;28;20046;-68
2023/07/26 04:23:12;;;;;;;8.63;4.35;;;12.30;99.90;;;;;;4993022;28;20097;-67
2023/07/26 04:25:38;;;;;;;7.68;3.90;;;;;;;;;;4997066;28;20045;-67
2023/07/26 04:28:04;;;;;;;8.52;3.33;;;;;;;;;;4989721;28;20044;-69
2023/07/26 04:30:30;;;;;;;7.55;3.85;;;;;;;;;;4998847;28;20096;-70
2023/07/26 04:32:56;;;;;;;7.32;3.67;;;;;;;;;;4994315;28;20457;-69
2023/07/26 04:35:21;;;;;;;6.13;3.42;;;12.50;99.90;;;;;;4995173;28;20157;-68
2023/07/26 04:37:47;;;;;;;5.90;3.95;;;;;;;;;;4992690;28;20411;-66
2023/07/26 04:40:13;;;;;;;9.93;4.15;;;;;;;;;;4998749;28;20360;-70
2023/07/26 04:42:39;;;;;;;5.13;2.83;;;;;;;;;;4994379;28;20041;-69
2023/07/26 04:45:05;;;;;;;5.57;3.53;;;12.40;99.90;;;;;;4991165;28;20042;-67
2023/07/26 04:47:31;;;;;;;4.72;3.25;;;12.40;99.90;;;;;;4991269;28;20177;-67
2023/07/26 04:53:38;;;;;;;5.03;3.50;;;;;;;;;;4990434;28;20041;-68
2023/07/26 04:56:05;;;;;;;6.15;3.47;;;;;;;;;;5007268;28;20042;-68
2023/07/26 04:58:31;;;;;;;6.20;3.63;;;;;;;;;;4989303;28;20054;-72
2023/07/26 05:00:57;;;;;;;4.65;3.00;;;12.50;99.90;;;;;;4990212;28;20543;-68
2023/07/26 05:03:23;;;;;;;4.75;3.13;;;;;;;;;;4989205;28;20050;-66
2023/07/26 05:05:50;;;;;;;6.75;3.45;;;12.70;99.90;;;;;;4994400;28;20057;-68
2023/07/26 05:08:16;;;;;;;4.25;2.97;;;;;;;;;;4986856;28;20420;-68
2023/07/26 05:10:42;;;;;;;10.02;3.40;;;;;;;;;;4997134;28;20385;-66
2023/07/26 05:13:08;;;;;;;4.75;3.20;;;;;;;;;;4983905;28;20049;-68
2023/07/26 05:15:34;;;;;;;5.28;3.35;;;;;;;;;;4979703;28;20078;-67
2023/07/26 05:18:00;;;;;;;6.30;3.97;;;;;;;;;;4986370;28;20050;-68
2023/07/26 05:20:26;;;;;;;5.25;3.63;;;13.00;99.90;;;;;;4989351;28;20042;-70
2023/07/26 05:22:52;;;;;;;5.07;2.92;;;;;;;;;;4992009;28;20077;-67
2023/07/26 05:25:19;;;;;;;4.72;3.17;;;12.80;99.90;;;;;;4985848;28;20098;-70
2023/07/26 05:27:45;;;;;;;6.57;2.85;;;;;;;;;;4996571;28;20070;-71
2023/07/26 05:30:11;;;;;;;4.30;2.58;;;;;;;;;;4995253;28;20065;-69
2023/07/26 05:32:37;;;;;;;4.70;3.00;;;;;;;;;;4995288;28;20500;-72
2023/07/26 05:35:03;;;;;;;4.80;3.13;;;;;;;;;;4996385;28;20074;-73
2023/07/26 05:37:34;;;;;;;5.97;3.10;;;;;;;;;;4995872;28;20042;-72
2023/07/26 05:40:00;;;;;;;4.05;2.90;;;;;;;;;;4980775;28;20517;-71
2023/07/26 05:42:26;;;;;;;5.72;2.72;;;;;;;;;;4999222;28;20056;-69
2023/07/26 05:51:29;;;;;;;5.90;3.03;;;;;;;;;;4984930;28;20041;-71
2023/07/26 05:54:10;;;;;;;6.72;3.28;;;12.90;99.90;;;;;;4984551;28;20038;-70
2023/07/26 05:56:36;;;;;;;5.65;3.20;;;;;;;;;;5117292;22;20584;-86
2023/07/26 05:59:02;;;;;;;5.68;2.97;;;;;;;;;;4997214;28;20042;-87
2023/07/26 06:01:27;;;;;;;5.82;2.92;;;13.20;99.90;;;;;;4976984;28;20039;-88
2023/07/26 06:03:53;;;;;;;7.05;3.30;;;;;;;;;;4945155;28;20042;-89
2023/07/26 06:06:20;;;;;;;4.75;3.22;;;;;;;;;;4955791;28;20043;-87
2023/07/26 06:08:46;;;;;;;4.88;2.45;;;;;;;;;;4950316;28;20147;-87
2023/07/26 06:11:12;;;;;;;7.28;3.60;;;;;;;;;;4965250;28;20078;-87
2023/07/26 06:13:38;;;;;;;5.47;2.63;;;;;;;;;;4972408;28;20541;-89
2023/07/26 06:16:04;;;;;;;5.70;2.58;;;;;;;;;;4955629;28;20099;-89
2023/07/26 06:18:30;;;;;;;3.47;2.58;;;;;;;;;;4948918;28;20386;-88
2023/07/26 06:20:56;;;;;;;4.30;3.00;;;;;;;;;;4949294;28;20043;-88
2023/07/26 06:23:22;;;;;;;3.15;2.17;;;;;;;;;;4956468;28;20106;-89
2023/07/26 06:25:48;;;;;;;4.32;2.65;;;;;;;;;;4949301;28;20506;-88
2023/07/26 06:28:14;;;;;;;7.47;2.70;;;;;;;;;;4955153;28;20051;-89
2023/07/26 06:30:41;;;;;;;6.63;2.97;;;;;;;;;;4944086;28;20118;-89
2023/07/26 06:33:06;;;;;;;8.93;3.30;;;;;;;;;;4974974;28;20050;-88
2023/07/26 06:35:33;;;;;;;4.78;3.13;;;;;;;;;;4937513;28;20047;-89
2023/07/26 06:37:59;;;;;;;5.65;3.00;;;;;;;;;;4941344;28;20045;-88
2023/07/26 06:40:24;;;;;;;4.95;3.45;;;;;;;;;;4978646;28;20484;-88
2023/07/26 06:42:50;;;;;;;5.60;2.92;;;;;;;;;;4981385;28;20051;-88
2023/07/26 06:45:17;;;;;;;7.38;3.17;;;;;;;;;;4950857;28;20158;-87
2023/07/26 06:47:42;;;;;;;5.38;2.92;;;;;;;;;;4966602;28;20378;-88
2023/07/26 06:50:08;;;;;;;7.90;3.15;;;13.50;99.90;;;;;;4984490;28;20039;-88
2023/07/26 06:52:34;;;;;;;7.47;2.90;;;;;;;;;;4950729;28;20118;-88
2023/07/26 06:55:00;;;;;;;5.53;3.20;;;;;;;;;;4975199;28;20043;-87
2023/07/26 06:57:26;;;;;;;8.07;3.42;;;;;;;;;;4942712;28;20067;-86
2023/07/26 06:59:52;;;;;;;7.25;3.72;;;;;;;;;;4948900;28;20054;-87
2023/07/26 07:02:18;;;;;;;7.68;3.55;;;;;;;;;;4950087;28;20047;-89
2023/07/26 07:04:44;;;;;;;14.35;4.32;;;;;;;;;;4973023;28;20043;-88
2023/07/26 07:07:10;;;;;;;13.07;5.30;;;;;;;;;;4948907;28;20031;-89
2023/07/26 07:09:36;;;;;;;14.52;5.82;;;;;;;;;;4932874;28;21330;-87
2023/07/26 07:12:03;;;;;;;8.15;4.07;;;;;;;;;;4954478;28;20078;-87
2023/07/26 07:14:29;;;;;;;6.72;3.72;;;;;;;;;;4981949;28;20051;-88
2023/07/26 07:16:54;;;;;;;8.02;4.00;;;13.40;99.90;;;;;;4979346;28;20039;-90
2023/07/26 07:19:21;;;;;;;6.72;3.85;;;;;;;;;;4951214;28;20043;-89
2023/07/26 07:21:46;;;;;;;7.55;3.90;;;;;;;;;;4952597;28;20047;-87
2023/07/26 07:24:13;;;;;;;6.20;3.80;;;;;;;;;;4949364;28;20054;-88
2023/07/26 07:26:39;;;;;;;8.02;4.38;;;;;;;;;;4939705;28;20050;-87
2023/07/26 07:29:05;;;;;;;6.15;3.65;;;;;;;;;;4946308;28;20435;-91
2023/07/26 07:31:32;;;;;;;7.90;4.53;;;;;;;;;;4950083;28;20043;-86
2023/07/26 07:33:58;;;;;;;7.03;4.28;;;;;;;;;;4944992;28;20039;-89
2023/07/26 07:36:24;;;;;;;7.82;4.88;;;;;;;;;;4930786;28;20106;-87
2023/07/26 07:38:49;;;;;;;7.05;4.65;;;13.60;99.90;;;;;;4965156;28;20122;-89
2023/07/26 07:41:15;;;;;;;6.07;4.22;;;;;;;;;;4933785;28;20109;-88
2023/07/26 07:43:41;;;;;;;8.60;4.85;;;;;;;;;;4964465;28;20765;-86
2023/07/26 07:46:07;;;;;;;6.72;4.85;;;;;;;;;;4944141;28;20043;-88
2023/07/26 07:48:37;;;;;;;7.35;4.68;;;;;;;;;;4944237;28;20051;-88
2023/07/26 07:51:03;;;;;;;10.48;4.65;;;;;;;;;;4929780;28;20055;-87
2023/07/26 07:53:29;;;;;;;6.43;4.60;;;;;;;;;;4983969;28;20035;-89
2023/07/26 07:55:55;;;;;;;7.18;5.05;;;;;;;;;;4946909;28;20418;-88
2023/07/26 07:58:21;;;;;;;5.47;4.35;;;;;;;;;;4961650;28;20091;-88
2023/07/26 08:00:47;;;;;;;7.30;4.97;;;;;;;;;;4957853;28;20047;-89
2023/07/26 08:03:13;;;;;;;9.25;4.20;;;;;;;;;;4944331;28;20051;-89
2023/07/26 08:05:39;;;;;;;5.93;3.97;;;;;;;;;;4947762;28;20133;-88
2023/07/26 08:08:06;;;;;;;6.07;3.50;;;;;;;;;;4967858;28;20047;-89
2023/07/26 08:10:32;;;;;;;5.75;2.60;;;;;;;;;;4945670;28;20885;-88
2023/07/26 08:12:58;;;;;;;5.05;2.78;;;;;;;;;;4953662;28;20043;-89
2023/07/26 08:15:24;;;;;;;3.00;2.10;;;;;;;;;;4971877;28;20443;-88
2023/07/26 08:17:50;;;;;;;2.97;2.25;;;;;;;;;;4988548;28;20074;-88
2023/07/26 08:20:16;;;;;;;3.75;2.03;;;;;;;;;;4989640;28;20054;-88
2023/07/26 08:22:42;;;;;;;5.07;2.22;;;;;;;;;;4958235;28;20043;-89
2023/07/26 08:25:08;;;;;;;3.78;2.08;;;;;;;;;;4935557;29;20465;-88
2023/07/26 08:27:34;;;;;;;4.70;2.50;;;;;;;;;;4952139;28;20051;-89
2023/07/26 08:30:00;;;;;;;3.70;2.20;;;;;;;;;;4953548;28;20433;-89
2023/07/26 08:32:26;;;;;;;3.95;2.45;;;14.90;99.90;;;;;;4963616;28;20045;-89
2023/07/26 08:34:51;;;;;;;3.70;2.08;;;;;;;;;;4955476;28;20614;-89
2023/07/26 08:37:18;;;;;;;4.80;2.90;;;;;;;;;;4952568;28;20039;-89
2023/07/26 08:39:45;;;;;;;3.78;2.78;;;;;;;;;;4933287;29;20832;-89
2023/07/26 08:42:11;;;;;;;5.13;2.40;;;;;;;;;;4957422;28;20050;-88
2023/07/26 08:44:38;;;;;;;6.40;2.75;;;14.90;99.90;;;;;;4957037;28;20050;-89
2023/07/26 08:47:05;;;;;;;5.88;3.03;;;;;;;;;;4963310;28;20548;-88
2023/07/26 08:49:31;;;;;;;3.80;2.63;;;15.20;99.90;;;;;;4954266;28;20043;-89
2023/07/26 08:52:01;;;;;;;5.85;2.53;;;15.30;99.90;;;;;;4966927;28;20400;-86
2023/07/26 08:54:27;;;;;;;4.30;2.50;;;;;;;;;;4946243;28;20490;-89
2023/07/26 08:56:53;;;;;;;3.70;2.42;;;;;;;;;;4951423;28;20098;-89
2023/07/26 08:59:19;;;;;;;3.97;3.00;;;;;;;;;;4950222;28;20053;-88
2023/07/26 09:01:46;;;;;;;5.47;2.53;;;15.10;99.90;;;;;;4942745;29;20047;-89
2023/07/26 09:04:12;;;;;;;4.63;3.08;;;;;;;;;;4950751;28;20099;-88
2023/07/26 09:06:40;;;;;;;3.85;2.95;;;15.00;99.90;;;;;;4950526;28;20164;-87
2023/07/26 09:09:09;;;;;;;6.32;3.15;;;;;;;;;;4950869;28;20046;-88
2023/07/26 09:11:35;;;;;;;5.88;3.13;;;;;;;;;;4956350;28;20040;-87
2023/07/26 09:14:03;;;;;;;4.57;2.63;;;14.80;99.90;;;;;;4967899;28;20039;-88
2023/07/26 09:16:31;;;;;;;4.88;2.83;;;15.00;99.90;;;;;;4953975;28;20050;-87
2023/07/26 09:19:02;;;;;;;6.25;2.83;;;14.80;99.90;;;;;;4934969;29;20046;-88
2023/07/26 09:21:30;;;;;;;5.57;3.25;;;;;;;;;;4960352;28;20051;-87
2023/07/26 09:23:57;;;;;;;5.03;3.05;;;14.70;99.90;;;;;;4966688;28;20043;-88
2023/07/26 09:26:43;;;;;;;5.25;2.97;;;14.60;99.90;;;;;;4950683;28;20043;-88
2023/07/26 09:29:10;;;;;;;4.45;2.95;;;;;;;;;;4935135;29;20820;-89
2023/07/26 09:31:38;;;;;;;5.60;2.70;;;14.60;99.90;;;;;;4956634;28;20042;-88
2023/07/26 09:34:07;;;;;;;5.38;2.95;;;14.60;99.90;;;;;;4955588;28;20109;-88
2023/07/26 09:36:50;;;;;;;6.55;3.53;;;14.70;99.90;;;;;;4940479;29;20067;-89
2023/07/26 09:39:20;;;;;;;7.88;4.03;;;14.90;99.90;;;;;;4942930;28;20560;-88
2023/07/26 09:41:47;;;;;;;6.13;3.53;;;;;;;;;;4933944;28;20401;-88
2023/07/26 09:44:17;;;;;;;7.05;3.35;;;15.30;99.90;;;;;;4952949;28;20054;-88
2023/07/26 09:46:51;;;;;;;6.25;3.90;;;15.20;99.90;;;;;;4931176;29;20102;-88
2023/07/26 09:49:22;;;;;;;6.45;3.63;;;15.20;99.90;;;;;;4983290;28;20045;-87
2023/07/26 09:51:48;;;;;;;4.85;3.95;;;;;;;;;;4960601;28;20047;-88
2023/07/26 09:54:15;;;;;;;6.45;4.25;;;;;;;;;;4987760;28;20043;-88
2023/07/26 09:56:41;;;;;;;5.97;3.42;;;;;;;;;;4956672;28;20130;-88
2023/07/26 09:59:11;;;;;;;6.80;3.50;;;15.90;99.90;;;;;;4935970;29;20135;-88
2023/07/26 10:01:45;;;;;;;7.38;3.33;;;16.10;99.90;;;;;;4954587;28;20054;-89
2023/07/26 10:04:27;;;;;;;4.55;3.13;;;16.20;99.90;;;;;;4951676;28;20110;-87
2023/07/26 10:06:56;;;;;;;7.28;3.92;;;16.20;99.90;;;;;;4930137;29;20065;-92
2023/07/26 10:09:25;;;;;;;5.32;2.60;;;16.70;99.90;;;;;;4973349;28;20067;-90
2023/07/26 10:11:53;;;;;;;5.28;3.42;;;16.70;99.90;;;;;;4945063;28;20170;-89
2023/07/26 10:14:20;;;;;;;4.72;3.10;;;16.30;99.90;;;;;;4952201;28;20043;-89
2023/07/26 10:16:48;;;;;;;5.30;2.50;;;16.80;99.90;;;;;;4931915;28;20761;-87
2023/07/26 10:19:16;;;;;;;6.15;3.50;;;16.90;99.90;;;;;;4946864;28;20043;-89
2023/07/26 10:21:43;;;;;;;5.30;3.20;;;16.70;99.90;;;;;;4950545;28;20051;-89
2023/07/26 10:24:11;;;;;;;4.97;3.75;;;16.80;99.90;;;;;;4925842;28;20050;-89
2023/07/26 10:26:37;;;;;;;5.03;3.55;;;16.90;99.90;;;;;;4946448;28;20039;-87
2023/07/26 10:29:03;;;;;;;9.15;3.10;;;;;;;;;;4929623;29;20047;-91
2023/07/26 10:31:30;;;;;;;4.47;2.28;;;16.60;99.90;;;;;;4945697;28;20078;-89
2023/07/26 10:33:56;;;;;;;3.50;1.80;;;;;;;;;;4942156;28;20060;-88
2023/07/26 10:36:28;;;;;;;2.97;1.40;;;15.70;99.90;;;;;;4948924;28;20050;-89
2023/07/26 10:38:54;;;;;;;3.50;1.45;;;;;;;;;;4928178;29;20057;-87
2023/07/26 10:41:25;;;;;;;2.10;1.10;;;15.80;99.90;;;;;;4936078;29;20043;-89
2023/07/26 10:44:04;;;;;;;2.33;1.02;;;15.50;99.90;;;;;;4926598;28;20087;-89
2023/07/26 10:46:45;;;;;;;3.25;1.08;;;15.40;99.90;;;;;;4957079;28;20042;-89
2023/07/26 10:49:20;;;;;;;3.22;1.30;;;15.30;99.90;;;;;;4931442;29;20039;-88
2023/07/26 10:51:51;;;;;;;3.08;1.45;;;;;;;;;;4975919;28;20093;-87
2023/07/26 10:54:43;;;;;;;2.28;1.55;;;15.20;99.90;;;;;;4959637;28;20497;-88
2023/07/26 10:57:25;;;;;;;2.10;1.42;;;15.50;99.90;;;;;;4958718;28;20063;-89
2023/07/26 10:59:55;;;;;;;3.97;1.63;;;;;;;;;;4927349;29;20051;-89
2023/07/26 11:02:48;;;;;;;3.00;1.90;;;15.70;99.90;;;;;;4971261;28;20059;-89
2023/07/26 11:05:14;;;;;;;5.38;2.00;;;;;;;;;;4928745;29;20062;-88
2023/07/26 11:08:06;;;;;;;5.43;2.45;;;16.10;99.90;;;;;;4936222;28;20786;-87
2023/07/26 11:10:50;;;;;;;4.60;2.75;;;16.40;99.90;;;;;;4951292;28;20043;-86
2023/07/26 11:13:26;;;;;;;3.97;2.78;;;16.50;99.90;;;;;;4952581;28;20677;-88
2023/07/26 11:15:52;;;;;;;4.18;2.95;;;;;;;;;;4945980;28;20921;-86
2023/07/26 11:18:20;;;;;;;5.15;2.50;;;16.80;99.90;;;;;;4985929;28;20043;-87
2023/07/26 11:20:49;;;;;;;6.18;2.40;;;17.00;99.90;;;;;;4944850;28;20043;-88
2023/07/26 11:23:22;;;;;;;5.07;2.22;;;17.10;99.90;;;;;;4946807;28;20043;-87
2023/07/26 11:25:49;;;;;;;5.85;2.55;;;17.30;99.90;;;;;;4948951;28;20043;-90
2023/07/26 11:28:16;;;;;;;6.07;2.10;;;;;;;;;;4947912;28;20051;-89
2023/07/26 11:30:47;;;;;;;4.78;2.05;;;17.40;99.90;;;;;;4948573;28;20074;-88
2023/07/26 11:33:13;;;;;;;5.07;2.13;;;;;;;;;;4931419;29;20043;-89
2023/07/26 11:35:40;;;;;;;3.10;1.60;;;17.70;99.90;;;;;;4945153;28;20046;-89
2023/07/26 11:38:06;;;;;;;3.45;1.60;;;;;;;;;;4931264;29;20448;-88
2023/07/26 11:40:42;;;;;;;2.92;1.17;;;17.80;99.90;;;;;;4943733;28;20055;-87
2023/07/26 11:43:09;;;;;;;3.05;1.65;;;;;;;;;;4940902;29;20114;-87
2023/07/26 11:45:41;;;;;;;2.25;1.35;;;17.70;99.90;;;;;;4949123;28;20055;-88
2023/07/26 11:48:11;;;;;;;3.20;1.30;;;;;;;;;;4927232;28;20051;-86
2023/07/26 11:50:37;;;;;;;2.97;1.35;;;17.60;99.90;;;;;;4946843;28;20126;-86
2023/07/26 11:53:10;;;;;;;2.10;1.00;;;17.80;99.90;;;;;;4933702;29;20043;-86
2023/07/26 11:55:39;;;;;;;2.78;1.20;;;17.60;99.90;;;;;;4948395;28;20043;-87
2023/07/26 11:58:08;;;;;;;4.57;1.65;;;18.00;99.90;;;;;;4967067;28;20049;-87
2023/07/26 12:00:40;;;;;;;5.28;1.40;;;18.00;99.90;;;;;;4947624;28;20386;-85
2023/07/26 12:03:07;;;;;;;3.40;1.45;;;;;;;;;;4953251;28;20058;-88
2023/07/26 12:05:33;;;;;;;4.78;2.00;;;18.10;99.90;;;;;;4931500;29;20051;-87
2023/07/26 12:08:03;;;;;;;4.43;2.08;;;18.10;99.90;;;;;;4947441;28;20049;-88
2023/07/26 12:10:37;;;;;;;4.75;2.10;;;18.20;99.90;;;;;;4950325;28;20039;-86
2023/07/26 12:13:07;;;;;;;6.80;2.10;;;18.40;99.90;;;;;;4952096;28;20039;-86
2023/07/26 12:16:13;;;;;;;5.18;2.70;;;18.40;99.90;;;;;;4954372;28;20042;-87
2023/07/26 12:18:50;;;;;;;5.18;2.05;;;18.40;99.90;;;;;;4918955;29;20100;-87
2023/07/26 12:21:16;;;;;;;5.72;2.30;;;;;;;;;;4932438;29;20054;-88
2023/07/26 12:23:54;;;;;;;5.10;2.42;;;18.40;99.90;;;;;;4949265;28;20047;-86
2023/07/26 12:26:21;;;;;;;5.53;2.20;;;18.40;99.90;;;;;;4939522;28;20134;-87
2023/07/26 12:28:48;;;;;;;5.50;1.75;;;;;;;;;;4948675;28;20494;-87
2023/07/26 12:31:21;;;;;;;5.57;2.28;;;18.70;99.90;;;;;;4948123;28;20094;-88
2023/07/26 12:34:09;;;;;;;9.82;2.45;;;18.60;99.90;;;;;;4932623;29;20493;-87
2023/07/26 12:36:41;;;;;;;5.20;1.90;;;18.60;99.90;;;;;;4948451;28;20122;-88
2023/07/26 12:39:11;;;;;;;3.33;1.60;;;18.40;99.90;;;;;;4948056;28;20035;-88
2023/07/26 12:41:38;;;;;;;6.53;2.50;;;18.20;99.90;;;;;;4945831;28;20035;-89
2023/07/26 12:44:08;;;;;;;7.07;2.50;;;;;;;;;;4944515;28;20059;-88
2023/07/26 12:46:34;;;;;;;7.10;2.45;;;;;;;;;;4935099;28;20043;-89
2023/07/26 12:49:00;;;;;;;6.57;2.85;;;;;;;;;;4951228;28;20043;-88
2023/07/26 12:51:27;;;;;;;7.05;2.65;;;17.90;99.90;;;;;;4985084;28;20055;-90
2023/07/26 12:53:56;;;;;;;5.88;2.70;;;17.70;99.90;;;;;;4951794;28;20046;-87
2023/07/26 12:56:23;;;;;;;5.00;2.95;;;17.80;99.90;;;;;;4952056;28;20047;-88
2023/07/26 12:58:49;;;;;;;4.68;2.50;;;;;;;;;;4953291;28;20063;-89
2023/07/26 13:01:17;;;;;;;10.77;4.15;;;;;;;;;;4963007;28;20039;-88
2023/07/26 13:03:43;;;;;;;6.70;2.83;;;18.30;99.90;;;;;;4948737;28;20054;-88
2023/07/26 13:06:09;;;;;;;9.70;3.50;;;;;;;;;;4955154;28;20446;-89
2023/07/26 13:08:35;;;;;;;6.03;2.65;;;;;;;;;;4975642;28;20089;-88
2023/07/26 13:11:01;;;;;;;10.05;3.95;;;;;;;;;;4950476;29;20050;-90
2023/07/26 13:13:27;;;;;;;12.43;3.58;;;;;;;;;;4980661;28;20061;-90
2023/07/26 13:15:54;;;;;;;10.05;3.80;;;;;;;;;;4935000;29;20039;-90
2023/07/26 13:18:20;;;;;;;7.53;3.10;;;;;;;;;;4948528;28;20776;-88
2023/07/26 13:20:46;;;;;;;13.75;3.60;;;;;;;;;;4953991;28;20450;-88
2023/07/26 13:23:12;;;;;;;5.35;2.40;;;;;;;;;;4926392;28;20489;-88
2023/07/26 13:25:38;;;;;;;3.33;1.95;;;;;;;;;;4950191;28;20058;-90
2023/07/26 13:28:04;;;;;;;4.95;2.35;;;;;;;;;;4950963;28;20047;-88
2023/07/26 13:30:31;;;;;;;5.20;2.45;;;;;;;;;;4966915;28;20043;-89
2023/07/26 13:32:57;;;;;;;9.88;2.80;;;;;;;;;;4956648;28;20529;-89
2023/07/26 13:35:22;;;;;;;5.60;2.95;;;17.00;99.90;;;;;;4977867;28;20131;-90
2023/07/26 13:37:48;;;;;;;8.40;4.15;;;;;;;;;;4934137;29;20441;-89
2023/07/26 13:40:18;;;;;;;6.53;3.35;;;17.40;99.90;;;;;;4962314;28;20042;-88
2023/07/26 13:42:44;;;;;;;11.60;4.32;;;;;;;;;;4948174;28;20114;-88
2023/07/26 13:45:10;;;;;;;5.97;3.17;;;;;;;;;;4953079;28;20070;-88
2023/07/26 13:47:36;;;;;;;13.57;4.03;;;;;;;;;;4953544;28;20417;-87
2023/07/26 13:50:02;;;;;;;8.73;3.10;;;17.80;99.90;;;;;;4949097;28;20043;-88
2023/07/26 13:52:28;;;;;;;6.20;3.38;;;;;;;;;;4934745;29;20131;-86
2023/07/26 13:54:54;;;;;;;8.05;3.17;;;;;;;;;;4961354;28;20133;-86
2023/07/26 13:57:21;;;;;;;10.60;3.53;;;;;;;;;;4949344;28;20066;-87
2023/07/26 13:59:47;;;;;;;8.90;3.65;;;;;;;;;;4974200;28;20040;-88
2023/07/26 14:02:13;;;;;;;7.78;2.75;;;;;;;;;;4958171;28;20118;-88
2023/07/26 14:04:39;;;;;;;7.35;2.42;;;;;;;;;;4987403;28;20097;-87
2023/07/26 14:07:05;;;;;;;5.35;3.10;;;;;;;;;;4929182;29;20055;-87
2023/07/26 14:09:31;;;;;;;9.35;2.45;;;17.90;99.90;;;;;;4942144;28;20572;-87
2023/07/26 14:11:59;;;;;;;6.53;2.95;;;;;;;;;;4934107;29;20417;-87
2023/07/26 14:14:25;;;;;;;7.22;2.30;;;;;;;;;;4934905;28;20046;-88
2023/07/26 14:16:51;;;;;;;7.22;2.75;;;;;;;;;;4934041;29;20508;-88
2023/07/26 14:19:17;;;;;;;5.20;2.50;;;;;;;;;;4945128;28;20035;-86
2023/07/26 14:21:43;;;;;;;5.40;2.55;;;;;;;;;;4931788;29;20067;-89
2023/07/26 14:24:09;;;;;;;7.07;2.55;;;;;;;;;;4983877;28;20081;-89
2023/07/26 14:26:35;;;;;;;7.72;2.38;;;;;;;;;;4957784;28;20035;-89
2023/07/26 14:29:01;;;;;;;5.65;2.45;;;;;;;;;;4967488;28;20043;-91
2023/07/26 14:31:27;;;;;;;4.45;2.05;;;;;;;;;;4940329;28;20066;-90
2023/07/26 14:33:53;;;;;;;4.30;2.03;;;;;;;;;;4974108;28;20043;-88
2023/07/26 14:36:19;;;;;;;4.22;2.05;;;;;;;;;;4953108;28;20512;-88
2023/07/26 14:38:45;;;;;;;7.80;2.40;;;;;;;;;;4952524;28;20051;-87
2023/07/26 14:41:11;;;;;;;6.63;2.50;;;;;;;;;;4957567;28;20122;-89
2023/07/26 14:43:37;;;;;;;6.03;2.53;;;18.80;99.90;;;;;;4949425;28;20126;-89
2023/07/26 14:46:03;;;;;;;5.93;2.92;;;;;;;;;;4948881;28;20050;-89
2023/07/26 14:48:29;;;;;;;6.50;3.05;;;;;;;;;;4948555;28;20494;-89
2023/07/26 14:50:55;;;;;;;7.57;2.55;;;;;;;;;;4933173;29;20039;-87
2023/07/26 14:53:24;;;;;;;6.95;3.42;;;;;;;;;;4929353;29;20122;-87
2023/07/26 14:55:50;;;;;;;7.22;3.40;;;;;;;;;;4946092;28;20051;-88
2023/07/26 14:58:16;;;;;;;6.28;2.95;;;;;;;;;;4943631;28;20066;-89
2023/07/26 15:00:42;;;;;;;9.32;3.00;;;;;;;;;;4925525;29;20162;-89
2023/07/26 15:03:10;;;;;;;8.70;2.83;;;;;;;;;;4940492;28;20125;-88
2023/07/26 15:05:44;;;;;;;5.72;3.17;;;;;;;;;;4933786;29;20089;-89
2023/07/26 15:08:11;;;;;;;4.60;2.47;;;;;;;;;;4982181;28;20044;-89
2023/07/26 15:10:37;;;;;;;6.57;2.58;;;;;;;;;;4949086;28;20102;-89
2023/07/26 15:13:03;;;;;;;6.20;3.33;;;;;;;;;;4948205;28;20398;-89
2023/07/26 15:15:29;;;;;;;4.90;2.00;;;;;;;;;;4970991;28;20035;-89
2023/07/26 15:17:55;;;;;;;8.05;2.92;;;19.30;99.90;;;;;;4948700;28;20050;-89
2023/07/26 15:20:21;;;;;;;8.23;2.80;;;;;;;;;;4945008;28;20502;-88
2023/07/26 15:22:52;;;;;;;6.20;2.22;;;;;;;;;;4948854;28;20395;-90
2023/07/26 15:25:18;;;;;;;6.43;2.75;;;19.20;99.90;;;;;;4960242;28;20077;-88
2023/07/26 15:27:44;;;;;;;5.55;2.78;;;;;;;;;;4933370;29;20055;-91
2023/07/26 15:30:10;;;;;;;5.25;2.13;;;19.30;99.90;;;;;;4939803;28;20097;-89